Accueil
METAR-TAF:

METAR-TAF

Aéroports :

Mannheim, Allemagne

Aéroport de Mannheim

latitude: 49-28-21N, longitude: 008-30-56E, altitude: 100 m

Observation

Le bulletin a été fait il y a 19 minutes, à 07:50 UTC
Vent 3 kt de direction variable
Température 10°C
Humidité 82%
Pression 1021 hPa
Visibilité 10 km ou plus
Quelques nuages à une hauteur de 2300 ft
Nuages épars à une hauteur de 5800 ft
Nuages fragmentés à une hauteur de 9500 ft

METAR: EDFM 230750Z VRB03KT 9999 FEW023 SCT058 BKN095 10/07 Q1021

Heure: 10:09 (08:09 UTC)

Prévision

Le bulletin a été fait il y a 3 heures et 9 minutes, à 05:00 UTC
Prévision valable du 23 à 06 UTC au 23 à 15 UTC
Vent 4 kt de sud-ouest
Visibilité 10 km ou plus
Nuages fragmentés à une hauteur de 4000 ft
Evoluant progressivement
du 23 à 07 UTC au 23 à 09 UTC
Vent 9 kt de ouest/sud-ouest

TAF: EDFM 230500Z 2306/2315 22004KT 9999 BKN040 BECMG 2307/2309 25009KT

Observations et prévisions météorologiques de plus de 4000 aéroports (messages METAR et TAF).

Les stations disponibles sont représentées par des disques jaunes et rouges sur la carte.

Passer la souris dessus pour voir le nom de la station.

Cliquer dessus pour voir les observations et prévisions météorologiques.

Pour changer de carte: cliquez sur les boutons verts avec une croix noire pour zoomer, sur le bouton vert avec un tiret pour effectuer un zoom arrière, ou sur les flèches vertes pour les cartes adjacentes.


METAR-TAF: